sensor_id;sensor_type;location;lat;lon;timestamp;pressure;altitude;pressure_sealevel;temperature;humidity
6899;BME280;3488;42.616;23.350;2022-07-30T00:00:25;64379.06;;;22.98;51.05
6899;BME280;3488;42.616;23.350;2022-07-30T00:02:52;64370.69;;;22.90;51.72
6899;BME280;3488;42.616;23.350;2022-07-30T00:05:19;64357.63;;;22.77;51.86
6899;BME280;3488;42.616;23.350;2022-07-30T00:07:46;64368.56;;;22.85;52.09
6899;BME280;3488;42.616;23.350;2022-07-30T00:10:13;64370.13;;;22.87;51.91
6899;BME280;3488;42.616;23.350;2022-07-30T00:12:42;64363.34;;;22.80;52.93
6899;BME280;3488;42.616;23.350;2022-07-30T00:15:09;64361.78;;;22.81;52.46
6899;BME280;3488;42.616;23.350;2022-07-30T00:17:35;64352.91;;;22.70;52.19
6899;BME280;3488;42.616;23.350;2022-07-30T00:20:03;64356.56;;;22.76;52.22
6899;BME280;3488;42.616;23.350;2022-07-30T00:22:31;64357.06;;;22.72;52.48
6899;BME280;3488;42.616;23.350;2022-07-30T00:24:58;64351.84;;;22.69;52.92
6899;BME280;3488;42.616;23.350;2022-07-30T00:27:24;64360.72;;;22.78;52.91
6899;BME280;3488;42.616;23.350;2022-07-30T00:29:53;64357.63;;;22.77;53.19
6899;BME280;3488;42.616;23.350;2022-07-30T00:32:20;64353.41;;;22.68;53.40
6899;BME280;3488;42.616;23.350;2022-07-30T00:34:47;64350.81;;;22.71;53.59
6899;BME280;3488;42.616;23.350;2022-07-30T00:37:14;64350.28;;;22.68;53.29
6899;BME280;3488;42.616;23.350;2022-07-30T00:39:41;64351.34;;;22.69;53.39
6899;BME280;3488;42.616;23.350;2022-07-30T00:42:08;64353.41;;;22.68;53.55
6899;BME280;3488;42.616;23.350;2022-07-30T00:44:34;64342.44;;;22.63;53.92
6899;BME280;3488;42.616;23.350;2022-07-30T00:47:03;64349.25;;;22.69;53.61
6899;BME280;3488;42.616;23.350;2022-07-30T00:49:30;64346.09;;;22.66;53.76
6899;BME280;3488;42.616;23.350;2022-07-30T00:51:57;64346.63;;;22.64;53.95
6899;BME280;3488;42.616;23.350;2022-07-30T00:54:24;64342.94;;;22.61;53.93
6899;BME280;3488;42.616;23.350;2022-07-30T00:56:51;64339.81;;;22.55;54.46
6899;BME280;3488;42.616;23.350;2022-07-30T00:59:17;64340.34;;;22.58;54.11
6899;BME280;3488;42.616;23.350;2022-07-30T01:01:44;64339.84;;;22.63;54.57
6899;BME280;3488;42.616;23.350;2022-07-30T01:04:13;64341.38;;;22.59;54.14
6899;BME280;3488;42.616;23.350;2022-07-30T01:06:40;64339.28;;;22.57;54.78
6899;BME280;3488;42.616;23.350;2022-07-30T01:09:07;64335.09;;;22.53;54.61
6899;BME280;3488;42.616;23.350;2022-07-30T01:11:36;64338.78;;;22.57;54.45
6899;BME280;3488;42.616;23.350;2022-07-30T01:14:05;64325.66;;;22.42;55.37
6899;BME280;3488;42.616;23.350;2022-07-30T01:16:33;64316.81;;;22.36;55.10
6899;BME280;3488;42.616;23.350;2022-07-30T01:19:03;64317.84;;;22.37;54.92
6899;BME280;3488;42.616;23.350;2022-07-30T01:22:02;64311.06;;;22.33;55.65
6899;BME280;3488;42.616;23.350;2022-07-30T01:24:34;64298.53;;;22.21;56.25
6899;BME280;3488;42.616;23.350;2022-07-30T01:27:05;64302.16;;;22.22;56.23
6899;BME280;3488;42.616;23.350;2022-07-30T01:29:35;64301.63;;;22.21;56.49
6899;BME280;3488;42.616;23.350;2022-07-30T01:32:05;64303.22;;;22.25;56.93
6899;BME280;3488;42.616;23.350;2022-07-30T01:34:33;64301.13;;;22.21;57.38
6899;BME280;3488;42.616;23.350;2022-07-30T01:37:03;64290.66;;;22.11;57.89
6899;BME280;3488;42.616;23.350;2022-07-30T01:39:34;64291.19;;;22.11;57.98
6899;BME280;3488;42.616;23.350;2022-07-30T01:42:03;64287.00;;;22.07;57.81
6899;BME280;3488;42.616;23.350;2022-07-30T01:44:33;64279.19;;;22.00;58.52
6899;BME280;3488;42.616;23.350;2022-07-30T01:47:00;64268.72;;;21.90;59.26
6899;BME280;3488;42.616;23.350;2022-07-30T01:49:28;64267.13;;;21.86;59.89
6899;BME280;3488;42.616;23.350;2022-07-30T01:51:56;64230.56;;;21.55;60.91
6899;BME280;3488;42.616;23.350;2022-07-30T01:54:25;64236.84;;;21.61;61.91
6899;BME280;3488;42.616;23.350;2022-07-30T01:56:53;64232.13;;;21.54;62.64
6899;BME280;3488;42.616;23.350;2022-07-30T01:59:23;64206.03;;;21.32;62.73
6899;BME280;3488;42.616;23.350;2022-07-30T02:01:51;64204.47;;;21.30;63.53
6899;BME280;3488;42.616;23.350;2022-07-30T02:04:18;64200.78;;;21.22;63.75
6899;BME280;3488;42.616;23.350;2022-07-30T02:06:48;64191.41;;;21.15;64.26
6899;BME280;3488;42.616;23.350;2022-07-30T02:09:21;64180.41;;;21.02;65.63
6899;BME280;3488;42.616;23.350;2022-07-30T02:11:50;64175.22;;;21.00;66.65
6899;BME280;3488;42.616;23.350;2022-07-30T02:14:41;64178.84;;;20.98;66.97
6899;BME280;3488;42.616;23.350;2022-07-30T02:17:15;64173.06;;;20.95;67.02
6899;BME280;3488;42.616;23.350;2022-07-30T02:19:48;64164.75;;;20.90;67.12
6899;BME280;3488;42.616;23.350;2022-07-30T02:22:18;64155.34;;;20.81;67.86
6899;BME280;3488;42.616;23.350;2022-07-30T02:24:47;64151.19;;;20.77;69.01
6899;BME280;3488;42.616;23.350;2022-07-30T02:27:19;64132.41;;;20.61;69.60
6899;BME280;3488;42.616;23.350;2022-07-30T02:29:50;64145.94;;;20.69;69.64
6899;BME280;3488;42.616;23.350;2022-07-30T02:32:19;64146.97;;;20.70;69.16
6899;BME280;3488;42.616;23.350;2022-07-30T02:34:50;64140.16;;;20.61;69.99
6899;BME280;3488;42.616;23.350;2022-07-30T02:37:20;64131.88;;;20.58;70.30
6899;BME280;3488;42.616;23.350;2022-07-30T02:39:49;64124.03;;;20.50;70.84
6899;BME280;3488;42.616;23.350;2022-07-30T02:42:18;64125.66;;;20.57;71.05
6899;BME280;3488;42.616;23.350;2022-07-30T02:44:45;64125.59;;;20.52;72.04
6899;BME280;3488;42.616;23.350;2022-07-30T02:47:16;64112.06;;;20.41;73.12
6899;BME280;3488;42.616;23.350;2022-07-30T02:49:46;64114.13;;;20.43;73.13
6899;BME280;3488;42.616;23.350;2022-07-30T02:52:14;64119.34;;;20.46;75.46
6899;BME280;3488;42.616;23.350;2022-07-30T02:54:43;64110.47;;;20.40;75.21
6899;BME280;3488;42.616;23.350;2022-07-30T02:57:12;64126.06;;;20.47;74.92
6899;BME280;3488;42.616;23.350;2022-07-30T02:59:41;64116.75;;;20.46;75.67
6899;BME280;3488;42.616;23.350;2022-07-30T03:02:10;64118.81;;;20.43;76.27
6899;BME280;3488;42.616;23.350;2022-07-30T03:04:39;64114.19;;;20.48;77.55
6899;BME280;3488;42.616;23.350;2022-07-30T03:07:07;64108.94;;;20.41;77.87
6899;BME280;3488;42.616;23.350;2022-07-30T03:09:36;64103.69;;;20.33;78.46
6899;BME280;3488;42.616;23.350;2022-07-30T03:12:05;64096.41;;;20.26;80.70
6899;BME280;3488;42.616;23.350;2022-07-30T03:14:33;64095.34;;;20.25;80.77
6899;BME280;3488;42.616;23.350;2022-07-30T03:17:01;64093.28;;;20.23;79.84
6899;BME280;3488;42.616;23.350;2022-07-30T03:19:32;64087.00;;;20.17;80.44
6899;BME280;3488;42.616;23.350;2022-07-30T03:22:05;64088.03;;;20.16;81.50
6899;BME280;3488;42.616;23.350;2022-07-30T03:24:33;64079.69;;;20.10;81.65
6899;BME280;3488;42.616;23.350;2022-07-30T03:27:01;64085.94;;;20.14;82.38
6899;BME280;3488;42.616;23.350;2022-07-30T03:29:29;64088.06;;;20.18;82.50
6899;BME280;3488;42.616;23.350;2022-07-30T03:31:58;64089.03;;;20.14;83.23
6899;BME280;3488;42.616;23.350;2022-07-30T03:34:25;64072.91;;;20.04;83.93
6899;BME280;3488;42.616;23.350;2022-07-30T03:36:53;64080.19;;;20.11;84.63
6899;BME280;3488;42.616;23.350;2022-07-30T03:39:22;64075.50;;;20.06;85.68
6899;BME280;3488;42.616;23.350;2022-07-30T03:41:50;64075.50;;;20.06;85.09
6899;BME280;3488;42.616;23.350;2022-07-30T03:44:18;64081.25;;;20.14;84.74
6899;BME280;3488;42.616;23.350;2022-07-30T03:46:45;64079.22;;;20.15;83.99
6899;BME280;3488;42.616;23.350;2022-07-30T03:49:15;64078.09;;;20.09;85.54
6899;BME280;3488;42.616;23.350;2022-07-30T03:51:43;64077.59;;;20.08;87.36
6899;BME280;3488;42.616;23.350;2022-07-30T03:54:11;64083.34;;;20.14;87.52
6899;BME280;3488;42.616;23.350;2022-07-30T03:56:40;64082.81;;;20.13;86.69
6899;BME280;3488;42.616;23.350;2022-07-30T03:59:08;64099.47;;;20.24;86.43
6899;BME280;3488;42.616;23.350;2022-07-30T04:01:35;64102.13;;;20.32;85.16
6899;BME280;3488;42.616;23.350;2022-07-30T04:04:05;64103.69;;;20.33;86.48
6899;BME280;3488;42.616;23.350;2022-07-30T04:06:32;64118.28;;;20.42;85.19
6899;BME280;3488;42.616;23.350;2022-07-30T04:09:04;64126.66;;;20.55;84.49
6899;BME280;3488;42.616;23.350;2022-07-30T04:11:32;64130.84;;;20.59;83.63
6899;BME280;3488;42.616;23.350;2022-07-30T04:14:00;64135.53;;;20.64;83.30
6899;BME280;3488;42.616;23.350;2022-07-30T04:16:33;64155.88;;;20.81;82.69
6899;BME280;3488;42.616;23.350;2022-07-30T04:19:04;64159.56;;;20.87;82.58
6899;BME280;3488;42.616;23.350;2022-07-30T04:21:34;64165.81;;;20.93;81.51
6899;BME280;3488;42.616;23.350;2022-07-30T04:24:02;64180.97;;;21.05;80.29
6899;BME280;3488;42.616;23.350;2022-07-30T04:26:31;64189.88;;;21.19;80.50
6899;BME280;3488;42.616;23.350;2022-07-30T04:29:01;64207.59;;;21.33;82.02
6899;BME280;3488;42.616;23.350;2022-07-30T04:31:28;64219.09;;;21.47;79.80
6899;BME280;3488;42.616;23.350;2022-07-30T04:34:00;64232.66;;;21.57;78.78
6899;BME280;3488;42.616;23.350;2022-07-30T04:36:27;64244.69;;;21.69;77.82
6899;BME280;3488;42.616;23.350;2022-07-30T04:38:54;64249.41;;;21.76;75.94
6899;BME280;3488;42.616;23.350;2022-07-30T04:41:21;64271.88;;;21.95;75.32
6899;BME280;3488;42.616;23.350;2022-07-30T04:43:48;64283.91;;;22.07;76.17
6899;BME280;3488;42.616;23.350;2022-07-30T04:46:17;64289.66;;;22.12;75.49
6899;BME280;3488;42.616;23.350;2022-07-30T04:48:44;64310.00;;;22.29;74.46
6899;BME280;3488;42.616;23.350;2022-07-30T04:51:12;64319.97;;;22.41;74.96
6899;BME280;3488;42.616;23.350;2022-07-30T04:53:42;64329.34;;;22.48;74.25
6899;BME280;3488;42.616;23.350;2022-07-30T04:56:12;64336.69;;;22.57;74.12
6899;BME280;3488;42.616;23.350;2022-07-30T04:58:41;64338.78;;;22.59;72.30
6899;BME280;3488;42.616;23.350;2022-07-30T05:01:09;64350.31;;;22.73;72.19
6899;BME280;3488;42.616;23.350;2022-07-30T05:03:39;64372.75;;;22.89;73.29
6899;BME280;3488;42.616;23.350;2022-07-30T05:06:07;64387.41;;;23.04;71.80
6899;BME280;3488;42.616;23.350;2022-07-30T05:08:34;64402.56;;;23.18;71.11
6899;BME280;3488;42.616;23.350;2022-07-30T05:11:02;64423.00;;;23.40;70.17
6899;BME280;3488;42.616;23.350;2022-07-30T05:13:28;64446.50;;;23.55;70.18
6899;BME280;3488;42.616;23.350;2022-07-30T05:15:56;64459.59;;;23.70;68.96
6899;BME280;3488;42.616;23.350;2022-07-30T05:18:22;64476.34;;;23.89;68.65
6899;BME280;3488;42.616;23.350;2022-07-30T05:20:51;64483.69;;;23.96;68.37
6899;BME280;3488;42.616;23.350;2022-07-30T05:23:18;64478.97;;;23.91;67.98
6899;BME280;3488;42.616;23.350;2022-07-30T05:25:45;64480.53;;;23.95;67.91
6899;BME280;3488;42.616;23.350;2022-07-30T05:28:12;64496.78;;;24.09;66.73
6899;BME280;3488;42.616;23.350;2022-07-30T05:30:39;64495.22;;;24.07;66.01
6899;BME280;3488;42.616;23.350;2022-07-30T05:33:06;64503.59;;;24.18;66.65
6899;BME280;3488;42.616;23.350;2022-07-30T05:35:33;64532.88;;;24.41;65.43
6899;BME280;3488;42.616;23.350;2022-07-30T05:38:02;64544.91;;;24.52;64.26
6899;BME280;3488;42.616;23.350;2022-07-30T05:40:28;64535.53;;;24.48;64.03
6899;BME280;3488;42.616;23.350;2022-07-30T05:42:56;64526.09;;;24.37;63.36
6899;BME280;3488;42.616;23.350;2022-07-30T05:45:22;64546.56;;;24.64;64.19
6899;BME280;3488;42.616;23.350;2022-07-30T05:47:50;64546.03;;;24.63;63.64
6899;BME280;3488;42.616;23.350;2022-07-30T05:50:16;64557.53;;;24.69;62.95
6899;BME280;3488;42.616;23.350;2022-07-30T05:52:43;64555.94;;;24.65;61.82
6899;BME280;3488;42.616;23.350;2022-07-30T05:55:12;64581.06;;;24.87;61.82
6899;BME280;3488;42.616;23.350;2022-07-30T05:57:39;64598.38;;;25.06;61.46
6899;BME280;3488;42.616;23.350;2022-07-30T06:00:08;64614.09;;;25.21;60.81
6899;BME280;3488;42.616;23.350;2022-07-30T06:02:36;64625.63;;;25.35;59.99
6899;BME280;3488;42.616;23.350;2022-07-30T06:05:04;64640.31;;;25.49;57.70
6899;BME280;3488;42.616;23.350;2022-07-30T06:07:31;64646.63;;;25.57;58.80
6899;BME280;3488;42.616;23.350;2022-07-30T06:09:58;64669.66;;;25.74;57.39
6899;BME280;3488;42.616;23.350;2022-07-30T06:12:27;64684.84;;;25.91;57.24
6899;BME280;3488;42.616;23.350;2022-07-30T06:14:54;64702.63;;;26.01;56.34
6899;BME280;3488;42.616;23.350;2022-07-30T06:17:21;64696.38;;;26.02;55.74
6899;BME280;3488;42.616;23.350;2022-07-30T06:19:49;64669.66;;;25.77;55.82
6899;BME280;3488;42.616;23.350;2022-07-30T06:22:17;64682.72;;;25.87;56.31
6899;BME280;3488;42.616;23.350;2022-07-30T06:24:44;64700.59;;;26.06;55.34
6899;BME280;3488;42.616;23.350;2022-07-30T06:27:11;64706.34;;;26.09;54.96
6899;BME280;3488;42.616;23.350;2022-07-30T06:29:39;64721.53;;;26.21;54.40
6899;BME280;3488;42.616;23.350;2022-07-30T06:32:06;64727.31;;;26.32;55.10
6899;BME280;3488;42.616;23.350;2022-07-30T06:34:34;64727.31;;;26.30;55.90
6899;BME280;3488;42.616;23.350;2022-07-30T06:37:00;64713.16;;;26.18;54.14
6899;BME280;3488;42.616;23.350;2022-07-30T06:39:27;64708.97;;;26.14;55.49
6899;BME280;3488;42.616;23.350;2022-07-30T06:41:54;64702.16;;;26.05;56.37
6899;BME280;3488;42.616;23.350;2022-07-30T06:44:21;64684.31;;;25.86;56.14
6899;BME280;3488;42.616;23.350;2022-07-30T06:46:49;64695.84;;;25.97;55.38
6899;BME280;3488;42.616;23.350;2022-07-30T06:49:16;64707.38;;;26.08;55.82
6899;BME280;3488;42.616;23.350;2022-07-30T06:51:43;64717.38;;;26.23;55.67
6899;BME280;3488;42.616;23.350;2022-07-30T06:54:10;64710.03;;;26.15;55.24
6899;BME280;3488;42.616;23.350;2022-07-30T06:56:37;64731.50;;;26.34;55.72
6899;BME280;3488;42.616;23.350;2022-07-30T06:59:04;64736.25;;;26.43;54.92
6899;BME280;3488;42.616;23.350;2022-07-30T07:01:31;64744.59;;;26.46;55.26
6899;BME280;3488;42.616;23.350;2022-07-30T07:03:59;64760.88;;;26.62;53.87
6899;BME280;3488;42.616;23.350;2022-07-30T07:06:28;64766.13;;;26.67;54.08
6899;BME280;3488;42.616;23.350;2022-07-30T07:08:55;64774.50;;;26.72;54.41
6899;BME280;3488;42.616;23.350;2022-07-30T07:11:22;64762.44;;;26.61;54.38
6899;BME280;3488;42.616;23.350;2022-07-30T07:13:49;64756.69;;;26.65;54.12
6899;BME280;3488;42.616;23.350;2022-07-30T07:16:16;64780.31;;;26.83;54.34
6899;BME280;3488;42.616;23.350;2022-07-30T07:18:46;64804.41;;;27.01;54.45
6899;BME280;3488;42.616;23.350;2022-07-30T07:21:14;64820.69;;;27.19;53.52
6899;BME280;3488;42.616;23.350;2022-07-30T07:23:41;64841.69;;;27.39;53.50
6899;BME280;3488;42.616;23.350;2022-07-30T07:26:09;64843.78;;;27.39;52.97
6899;BME280;3488;42.616;23.350;2022-07-30T07:28:37;64857.94;;;27.57;51.53
6899;BME280;3488;42.616;23.350;2022-07-30T07:31:04;64875.25;;;27.69;50.43
6899;BME280;3488;42.616;23.350;2022-07-30T07:33:31;64892.06;;;27.85;51.14
6899;BME280;3488;42.616;23.350;2022-07-30T07:35:58;64894.16;;;27.89;50.27
6899;BME280;3488;42.616;23.350;2022-07-30T07:38:27;64913.06;;;28.05;50.04
6899;BME280;3488;42.616;23.350;2022-07-30T07:40:54;64891.53;;;27.87;49.55
6899;BME280;3488;42.616;23.350;2022-07-30T07:43:21;64908.88;;;28.06;50.13
6899;BME280;3488;42.616;23.350;2022-07-30T07:45:50;64909.41;;;28.06;49.72
6899;BME280;3488;42.616;23.350;2022-07-30T07:48:17;64914.13;;;28.06;49.20
6899;BME280;3488;42.616;23.350;2022-07-30T07:50:44;64913.06;;;28.07;48.76
6899;BME280;3488;42.616;23.350;2022-07-30T07:53:11;64899.97;;;28.00;49.25
6899;BME280;3488;42.616;23.350;2022-07-30T07:55:40;64931.97;;;28.20;49.60
6899;BME280;3488;42.616;23.350;2022-07-30T07:58:07;64949.81;;;28.42;48.63
6899;BME280;3488;42.616;23.350;2022-07-30T08:00:36;64955.06;;;28.48;47.76
6899;BME280;3488;42.616;23.350;2022-07-30T08:03:03;64971.34;;;28.63;48.45
6899;BME280;3488;42.616;23.350;2022-07-30T08:05:30;64976.63;;;28.71;47.39
6899;BME280;3488;42.616;23.350;2022-07-30T08:07:57;64972.94;;;28.65;47.58
6899;BME280;3488;42.616;23.350;2022-07-30T08:10:24;64978.72;;;28.75;47.16
6899;BME280;3488;42.616;23.350;2022-07-30T08:12:53;64980.31;;;28.77;47.21
6899;BME280;3488;42.616;23.350;2022-07-30T08:15:21;65000.78;;;28.89;46.36
6899;BME280;3488;42.616;23.350;2022-07-30T08:17:48;65001.28;;;28.89;45.23
6899;BME280;3488;42.616;23.350;2022-07-30T08:20:15;64990.25;;;28.84;45.97
6899;BME280;3488;42.616;23.350;2022-07-30T08:22:42;64951.91;;;28.39;44.99
6899;BME280;3488;42.616;23.350;2022-07-30T08:25:09;64961.91;;;28.54;45.95
6899;BME280;3488;42.616;23.350;2022-07-30T08:27:36;64976.09;;;28.70;46.07
6899;BME280;3488;42.616;23.350;2022-07-30T08:30:07;64986.59;;;28.78;45.30
6899;BME280;3488;42.616;23.350;2022-07-30T08:32:35;64992.88;;;28.84;44.37
6899;BME280;3488;42.616;23.350;2022-07-30T08:35:02;64957.72;;;28.53;44.70
6899;BME280;3488;42.616;23.350;2022-07-30T08:37:29;64972.41;;;28.64;43.74
6899;BME280;3488;42.616;23.350;2022-07-30T08:39:56;64973.47;;;28.65;44.13
6899;BME280;3488;42.616;23.350;2022-07-30T08:42:23;64971.88;;;28.64;43.98
6899;BME280;3488;42.616;23.350;2022-07-30T08:44:52;64997.09;;;28.90;43.63
6899;BME280;3488;42.616;23.350;2022-07-30T08:47:24;65012.84;;;29.00;43.83
6899;BME280;3488;42.616;23.350;2022-07-30T08:49:54;65026.53;;;29.18;42.92
6899;BME280;3488;42.616;23.350;2022-07-30T08:52:26;65024.44;;;29.16;43.40
6899;BME280;3488;42.616;23.350;2022-07-30T08:54:53;65044.41;;;29.35;43.38
6899;BME280;3488;42.616;23.350;2022-07-30T08:57:20;65055.44;;;29.43;41.15
6899;BME280;3488;42.616;23.350;2022-07-30T08:59:47;65072.25;;;29.60;41.15
6899;BME280;3488;42.616;23.350;2022-07-30T09:02:15;65079.06;;;29.64;41.88
6899;BME280;3488;42.616;23.350;2022-07-30T09:04:44;65076.97;;;29.62;41.38
6899;BME280;3488;42.616;23.350;2022-07-30T09:07:11;65069.09;;;29.57;42.75
6899;BME280;3488;42.616;23.350;2022-07-30T09:09:38;65092.22;;;29.76;41.22
6899;BME280;3488;42.616;23.350;2022-07-30T09:12:33;65089.06;;;29.71;40.99
6899;BME280;3488;42.616;23.350;2022-07-30T09:15:01;65065.94;;;29.53;39.88
6899;BME280;3488;42.616;23.350;2022-07-30T09:17:54;65062.25;;;29.50;40.89
6899;BME280;3488;42.616;23.350;2022-07-30T09:20:26;65095.91;;;29.82;39.86
6899;BME280;3488;42.616;23.350;2022-07-30T09:22:54;65086.47;;;29.73;40.07
6899;BME280;3488;42.616;23.350;2022-07-30T09:25:39;65104.31;;;29.93;40.78
6899;BME280;3488;42.616;23.350;2022-07-30T09:28:08;65139.03;;;30.23;38.59
6899;BME280;3488;42.616;23.350;2022-07-30T09:30:43;65131.66;;;30.16;38.20
6899;BME280;3488;42.616;23.350;2022-07-30T09:33:11;65133.22;;;30.18;38.77
6899;BME280;3488;42.616;23.350;2022-07-30T09:35:40;65123.75;;;30.09;38.31
6899;BME280;3488;42.616;23.350;2022-07-30T09:38:08;65143.25;;;30.25;40.18
6899;BME280;3488;42.616;23.350;2022-07-30T09:40:35;65165.84;;;30.44;38.21
6899;BME280;3488;42.616;23.350;2022-07-30T09:43:04;65141.13;;;30.25;38.30
6899;BME280;3488;42.616;23.350;2022-07-30T09:45:31;65143.22;;;30.27;38.22
6899;BME280;3488;42.616;23.350;2022-07-30T09:47:59;65154.28;;;30.38;38.16
6899;BME280;3488;42.616;23.350;2022-07-30T09:50:27;65180.56;;;30.66;38.43
6899;BME280;3488;42.616;23.350;2022-07-30T09:53:05;65183.19;;;30.68;39.22
6899;BME280;3488;42.616;23.350;2022-07-30T09:55:33;65176.91;;;30.59;37.87
6899;BME280;3488;42.616;23.350;2022-07-30T09:58:02;65181.63;;;30.56;38.88
6899;BME280;3488;42.616;23.350;2022-07-30T10:00:31;65210.56;;;30.92;39.85
6899;BME280;3488;42.616;23.350;2022-07-30T10:03:00;65240.56;;;31.18;37.64
6899;BME280;3488;42.616;23.350;2022-07-30T10:05:28;65238.44;;;31.21;37.45
6899;BME280;3488;42.616;23.350;2022-07-30T10:07:57;65252.66;;;31.34;38.58
6899;BME280;3488;42.616;23.350;2022-07-30T10:10:27;65235.81;;;31.16;39.16
6899;BME280;3488;42.616;23.350;2022-07-30T10:12:58;65250.03;;;31.32;38.29
6899;BME280;3488;42.616;23.350;2022-07-30T10:15:29;65242.13;;;31.24;37.17
6899;BME280;3488;42.616;23.350;2022-07-30T10:17:56;65232.13;;;31.12;35.60
6899;BME280;3488;42.616;23.350;2022-07-30T10:20:24;65232.66;;;31.13;37.28
6899;BME280;3488;42.616;23.350;2022-07-30T10:22:52;65246.34;;;31.23;37.59
6899;BME280;3488;42.616;23.350;2022-07-30T10:25:21;65202.66;;;30.79;37.56
6899;BME280;3488;42.616;23.350;2022-07-30T10:27:49;65205.84;;;30.82;37.74
6899;BME280;3488;42.616;23.350;2022-07-30T10:30:17;65217.41;;;30.96;38.03
6899;BME280;3488;42.616;23.350;2022-07-30T10:32:45;65242.66;;;31.22;37.54
6899;BME280;3488;42.616;23.350;2022-07-30T10:35:12;65218.47;;;30.99;36.65
6899;BME280;3488;42.616;23.350;2022-07-30T10:37:42;65223.72;;;31.04;36.46
6899;BME280;3488;42.616;23.350;2022-07-30T10:40:16;65214.78;;;30.93;36.89
6899;BME280;3488;42.616;23.350;2022-07-30T10:43:05;65217.94;;;30.99;37.25
6899;BME280;3488;42.616;23.350;2022-07-30T10:45:40;65235.28;;;31.18;36.69
6899;BME280;3488;42.616;23.350;2022-07-30T10:48:14;65223.72;;;31.07;37.11
6899;BME280;3488;42.616;23.350;2022-07-30T10:50:49;65215.84;;;30.99;37.42
6899;BME280;3488;42.616;23.350;2022-07-30T10:53:36;65251.63;;;31.33;38.62
6899;BME280;3488;42.616;23.350;2022-07-30T10:56:14;65273.72;;;31.52;38.22
6899;BME280;3488;42.616;23.350;2022-07-30T10:59:05;65282.66;;;31.63;38.17
6899;BME280;3488;42.616;23.350;2022-07-30T11:04:32;65295.28;;;31.67;36.98
6899;BME280;3488;42.616;23.350;2022-07-30T11:07:30;65292.66;;;31.73;38.43
6899;BME280;3488;42.616;23.350;2022-07-30T11:09:58;65289.50;;;31.67;39.30
6899;BME280;3488;42.616;23.350;2022-07-30T11:12:51;65273.72;;;31.54;39.19
6899;BME280;3488;42.616;23.350;2022-07-30T11:15:20;65260.03;;;31.39;38.52
6899;BME280;3488;42.616;23.350;2022-07-30T11:17:58;65257.41;;;31.34;38.79
6899;BME280;3488;42.616;23.350;2022-07-30T11:20:26;65244.22;;;31.21;39.53
6899;BME280;3488;42.616;23.350;2022-07-30T11:23:07;65248.44;;;31.30;40.10
6899;BME280;3488;42.616;23.350;2022-07-30T11:25:38;65242.63;;;31.27;40.20
6899;BME280;3488;42.616;23.350;2022-07-30T11:28:07;65280.03;;;31.48;39.21
6899;BME280;3488;42.616;23.350;2022-07-30T11:30:55;65280.53;;;31.58;38.00
6899;BME280;3488;42.616;23.350;2022-07-30T11:33:23;65287.41;;;31.65;37.29
6899;BME280;3488;42.616;23.350;2022-07-30T11:36:10;65288.97;;;31.72;38.42
6899;BME280;3488;42.616;23.350;2022-07-30T11:38:59;65297.94;;;31.70;40.03
6899;BME280;3488;42.616;23.350;2022-07-30T11:41:26;65313.22;;;31.87;39.97
6899;BME280;3488;42.616;23.350;2022-07-30T11:44:25;65261.59;;;31.43;37.82
6899;BME280;3488;42.616;23.350;2022-07-30T11:46:53;65291.63;;;31.66;39.29
6899;BME280;3488;42.616;23.350;2022-07-30T11:49:20;65298.97;;;31.76;40.03
6899;BME280;3488;42.616;23.350;2022-07-30T11:51:48;65303.72;;;31.78;36.70
6899;BME280;3488;42.616;23.350;2022-07-30T11:54:15;65291.06;;;31.68;39.81
6899;BME280;3488;42.616;23.350;2022-07-30T11:56:49;65294.75;;;31.72;40.98
6899;BME280;3488;42.616;23.350;2022-07-30T11:59:16;65292.66;;;31.80;40.47
6899;BME280;3488;42.616;23.350;2022-07-30T12:01:48;65335.84;;;32.11;37.67
6899;BME280;3488;42.616;23.350;2022-07-30T12:04:17;65372.19;;;32.46;37.31
6899;BME280;3488;42.616;23.350;2022-07-30T12:06:45;65382.72;;;32.56;36.78
6899;BME280;3488;42.616;23.350;2022-07-30T12:09:20;65376.38;;;32.50;38.01
6899;BME280;3488;42.616;23.350;2022-07-30T12:11:47;65385.88;;;32.56;36.64
6899;BME280;3488;42.616;23.350;2022-07-30T12:14:14;65378.50;;;32.52;37.92
6899;BME280;3488;42.616;23.350;2022-07-30T12:16:48;65391.13;;;32.66;38.52
6899;BME280;3488;42.616;23.350;2022-07-30T12:19:16;65409.56;;;32.79;38.93
6899;BME280;3488;42.616;23.350;2022-07-30T12:21:43;65412.19;;;32.79;38.57
6899;BME280;3488;42.616;23.350;2022-07-30T12:24:10;65402.72;;;32.80;38.47
6899;BME280;3488;42.616;23.350;2022-07-30T12:26:38;65403.25;;;32.73;37.09
6899;BME280;3488;42.616;23.350;2022-07-30T12:29:07;65410.63;;;32.80;38.08
6899;BME280;3488;42.616;23.350;2022-07-30T12:31:34;65406.94;;;32.74;37.98
6899;BME280;3488;42.616;23.350;2022-07-30T12:34:01;65429.06;;;33.00;37.25
6899;BME280;3488;42.616;23.350;2022-07-30T12:36:32;65444.34;;;33.15;37.91
6899;BME280;3488;42.616;23.350;2022-07-30T12:39:00;65461.72;;;33.31;38.13
6899;BME280;3488;42.616;23.350;2022-07-30T12:41:43;65470.16;;;33.42;37.16
6899;BME280;3488;42.616;23.350;2022-07-30T12:44:34;65508.09;;;33.78;36.07
6899;BME280;3488;42.616;23.350;2022-07-30T12:47:01;65528.69;;;33.95;37.45
6899;BME280;3488;42.616;23.350;2022-07-30T12:49:28;65538.72;;;34.05;36.54
6899;BME280;3488;42.616;23.350;2022-07-30T12:51:57;65562.44;;;34.25;34.59
6899;BME280;3488;42.616;23.350;2022-07-30T12:54:24;65588.28;;;34.49;34.84
6899;BME280;3488;42.616;23.350;2022-07-30T12:56:55;65601.47;;;34.59;35.13
6899;BME280;3488;42.616;23.350;2022-07-30T12:59:24;65590.38;;;34.54;33.51
6899;BME280;3488;42.616;23.350;2022-07-30T13:01:51;65585.63;;;34.47;34.07
6899;BME280;3488;42.616;23.350;2022-07-30T13:04:18;65578.78;;;34.43;34.09
6899;BME280;3488;42.616;23.350;2022-07-30T13:07:05;65522.38;;;33.84;35.10
6899;BME280;3488;42.616;23.350;2022-07-30T13:09:33;65559.81;;;34.22;34.30
6899;BME280;3488;42.616;23.350;2022-07-30T13:12:00;65586.69;;;34.48;34.73
6899;BME280;3488;42.616;23.350;2022-07-30T13:14:27;65600.41;;;34.61;33.67
6899;BME280;3488;42.616;23.350;2022-07-30T13:16:55;65557.16;;;34.22;33.99
6899;BME280;3488;42.616;23.350;2022-07-30T13:19:23;65522.88;;;33.87;35.77
6899;BME280;3488;42.616;23.350;2022-07-30T13:21:50;65523.94;;;33.91;34.46
6899;BME280;3488;42.616;23.350;2022-07-30T13:24:18;65513.91;;;33.76;35.86